Time;durP1;ratioP1;P1;durP2;ratioP2;P2;SDS_P1;SDS_P2;PMS_P1;PMS_P2;Temp;Humidity;BMP_temperature;BMP_pressure;BME280_temperature;BME280_humidity;BME280_pressure;Samples;Min_cycle;Max_cycle;Signal;HPM_P1;HPM_P2
2020/12/17 00:02:25;;;;;;;40.08;20.23;;;4.30;85.40;;;1.96;88.60;96424.59;5008778;28;20041;-69
2020/12/17 00:04:51;;;;;;;39.03;18.90;;;4.30;85.30;;;1.98;88.51;96412.31;5008678;28;20061;-68
2020/12/17 00:07:16;;;;;;;38.35;19.00;;;4.40;85.40;;;1.97;89.02;96405.47;5022083;28;20056;-69
2020/12/17 00:09:42;;;;;;;44.78;18.63;;;4.30;85.30;;;1.98;88.77;96430.47;5021398;28;20033;-69
2020/12/17 00:12:07;;;;;;;40.50;19.55;;;4.30;85.30;;;2.00;89.46;96437.16;5021069;28;20048;-69
2020/12/17 00:14:33;;;;;;;38.05;19.13;;;4.30;85.50;;;2.00;88.67;96428.56;5010331;28;20047;-70
2020/12/17 00:16:58;;;;;;;50.80;18.05;;;4.40;85.20;;;1.98;88.51;96433.88;5032068;28;20052;-69
2020/12/17 00:19:24;;;;;;;25.40;14.45;;;4.30;85.00;;;1.97;88.76;96436.59;5048023;28;20032;-68
2020/12/17 00:21:52;;;;;;;28.02;13.80;;;4.20;85.50;;;1.97;89.10;96437.44;5025959;28;20072;-69
2020/12/17 00:24:18;;;;;;;27.02;13.73;;;4.20;85.40;;;1.95;88.52;96422.94;5048382;28;20044;-69
2020/12/17 00:26:44;;;;;;;23.50;13.07;;;4.20;85.30;;;1.95;88.94;96425.53;5028861;28;20044;-69
2020/12/17 00:29:09;;;;;;;23.08;12.85;;;4.20;85.20;;;1.95;88.50;96433.31;5029330;28;20495;-69
2020/12/17 00:31:35;;;;;;;24.23;12.27;;;4.20;85.00;;;1.95;88.80;96430.72;5029389;28;20534;-69
2020/12/17 00:34:00;;;;;;;28.98;12.90;;;4.20;85.00;;;1.92;88.85;96418.00;5042046;28;20504;-69
2020/12/17 00:36:26;;;;;;;26.58;13.55;;;4.20;85.00;;;1.90;88.56;96414.72;5049457;28;20448;-69
2020/12/17 00:38:51;;;;;;;24.02;13.35;;;4.10;85.30;;;1.90;88.88;96404.34;5057680;28;20037;-69
2020/12/17 00:41:17;;;;;;;29.00;13.23;;;4.20;85.20;;;1.88;89.00;96411.44;5035265;28;20036;-69
2020/12/17 00:43:43;;;;;;;22.63;12.75;;;4.20;85.00;;;1.88;88.65;96401.06;5048515;28;20126;-69
2020/12/17 00:46:13;;;;;;;27.73;13.73;;;4.20;85.20;;;1.88;89.01;96401.06;5016317;28;20352;-69
2020/12/17 00:48:39;;;;;;;25.50;13.27;;;4.20;85.20;;;1.89;88.59;96413.09;5015055;28;20507;-68
2020/12/17 00:51:05;;;;;;;26.27;14.68;;;4.20;85.20;;;1.88;88.43;96414.84;5009167;28;20120;-69
2020/12/17 00:53:30;;;;;;;37.85;14.05;;;4.20;85.00;;;1.87;88.95;96415.00;5044335;28;20078;-69
2020/12/17 00:55:56;;;;;;;26.38;13.98;;;4.20;85.20;;;1.84;89.30;96405.69;5029454;28;20056;-69
2020/12/17 00:58:21;;;;;;;35.85;13.90;;;4.10;85.30;;;1.82;89.02;96405.81;5048812;28;20045;-69
2020/12/17 01:00:47;;;;;;;29.52;13.25;;;4.10;85.40;;;1.82;88.34;96402.41;5028871;28;20044;-69
2020/12/17 01:03:12;;;;;;;32.15;13.45;;;4.10;85.50;;;1.80;88.87;96412.88;5041759;28;20037;-68
2020/12/17 01:05:38;;;;;;;26.17;15.27;;;4.10;85.60;;;1.82;88.06;96412.78;5036396;28;20029;-69
2020/12/17 01:08:04;;;;;;;30.23;15.10;;;4.10;85.50;;;1.83;88.38;96415.25;5059539;28;20484;-69
2020/12/17 01:10:29;;;;;;;32.28;15.27;;;4.10;85.50;;;1.83;88.87;96415.25;5006592;28;20475;-68
2020/12/17 01:12:55;;;;;;;35.15;13.73;;;4.10;85.60;;;1.80;88.53;96415.47;5037405;23;20887;-74
2020/12/17 01:15:20;;;;;;;31.10;13.32;;;4.10;85.50;;;1.78;88.83;96425.16;4999781;28;20041;-74
2020/12/17 01:17:46;;;;;;;29.95;13.77;;;4.00;85.60;;;1.76;88.90;96429.66;4986679;28;20051;-74
2020/12/17 01:20:12;;;;;;;23.77;13.02;;;4.00;85.70;;;1.73;88.93;96424.72;4963230;28;20413;-74
2020/12/17 01:22:38;;;;;;;23.33;12.55;;;4.00;85.70;;;1.75;88.98;96425.41;4982845;28;20125;-73
2020/12/17 01:25:03;;;;;;;28.40;11.52;;;4.00;85.80;;;1.73;88.60;96414.34;5009273;28;20317;-73
2020/12/17 01:27:30;;;;;;;22.73;11.88;;;4.00;85.70;;;1.72;88.95;96414.47;4995723;28;20055;-73
2020/12/17 01:29:55;;;;;;;19.63;11.43;;;3.90;85.80;;;1.73;88.33;96424.72;5010501;28;20033;-73
2020/12/17 01:32:21;;;;;;;19.35;11.82;;;3.90;85.70;;;1.70;89.16;96418.97;5021693;28;20029;-73
2020/12/17 01:34:47;;;;;;;20.65;12.75;;;3.90;85.70;;;1.71;88.95;96416.25;4976902;28;20451;-73
2020/12/17 01:37:13;;;;;;;21.67;11.70;;;3.90;85.60;;;1.73;89.00;96419.53;5007930;28;20040;-73
2020/12/17 01:39:38;;;;;;;20.17;12.02;;;4.00;85.30;;;1.72;88.32;96417.06;4998562;28;20496;-73
2020/12/17 01:42:04;;;;;;;20.52;12.05;;;4.10;85.30;;;1.73;88.84;96419.53;5012919;28;20546;-74
2020/12/17 01:44:29;;;;;;;21.65;11.85;;;4.10;85.20;;;1.77;88.88;96425.28;5024715;28;20037;-73
2020/12/17 01:46:55;;;;;;;26.00;12.43;;;4.10;85.30;;;1.77;88.66;96435.66;4996400;28;20037;-73
2020/12/17 01:49:25;;;;;;;22.95;12.23;;;4.10;85.20;;;1.78;88.99;96438.13;5015416;28;20041;-74
2020/12/17 01:51:53;;;;;;;19.07;11.93;;;4.10;85.20;;;1.77;88.48;96440.84;5002471;28;20040;-74
2020/12/17 01:54:19;;;;;;;21.15;11.55;;;4.10;85.20;;;1.75;88.85;96448.75;4978096;28;20272;-74
2020/12/17 01:56:47;;;;;;;22.92;12.15;;;4.10;85.20;;;1.72;88.63;96441.22;5017362;28;20037;-73
2020/12/17 01:59:21;;;;;;;23.98;11.95;;;4.00;85.30;;;1.72;89.14;96437.81;5024312;28;20149;-74
2020/12/17 02:01:48;;;;;;;28.88;12.55;;;4.00;85.30;;;1.72;88.60;96438.63;5010100;28;20448;-73
2020/12/17 02:04:18;;;;;;;19.60;11.35;;;4.00;85.30;;;1.71;88.72;96437.00;4982610;28;20036;-76
2020/12/17 02:06:45;;;;;;;22.00;12.73;;;4.00;85.40;;;1.69;88.66;96420.75;5000673;28;20033;-73
2020/12/17 02:09:11;;;;;;;23.60;12.77;;;4.00;85.50;;;1.69;89.02;96420.75;5011688;28;20037;-73
2020/12/17 02:11:36;;;;;;;22.45;11.25;;;4.10;85.50;;;1.69;88.45;96423.34;4988833;28;20037;-73
2020/12/17 02:14:02;;;;;;;21.92;12.25;;;4.00;85.20;;;1.69;88.99;96427.69;5004261;28;20044;-73
2020/12/17 02:16:28;;;;;;;21.50;12.43;;;3.90;85.60;;;1.70;88.92;96434.53;4992932;28;20516;-73
2020/12/17 02:18:54;;;;;;;32.17;12.68;;;4.00;85.70;;;1.67;88.26;96435.59;5032218;28;20056;-73
2020/12/17 02:21:20;;;;;;;34.78;13.23;;;3.90;85.70;;;1.66;88.53;96423.59;4996419;28;20033;-74
2020/12/17 02:23:45;;;;;;;29.13;11.75;;;4.00;85.80;;;1.66;88.68;96433.97;5012711;28;20060;-74
2020/12/17 02:26:11;;;;;;;23.85;12.82;;;3.80;86.00;;;1.65;88.77;96429.72;5021753;28;20030;-73
2020/12/17 02:28:38;;;;;;;25.30;13.15;;;3.90;86.20;;;1.65;88.68;96431.50;5001472;28;20041;-73
2020/12/17 02:31:03;;;;;;;35.40;13.48;;;3.90;86.10;;;1.68;88.87;96437.25;5042075;28;20076;-73
2020/12/17 02:33:29;;;;;;;31.15;14.23;;;4.00;85.80;;;1.63;88.73;96423.84;5034321;28;20053;-73
2020/12/17 02:35:54;;;;;;;28.30;13.82;;;4.00;86.00;;;1.71;88.39;96431.81;5031582;28;20036;-73
2020/12/17 02:38:20;;;;;;;24.67;13.07;;;4.00;86.10;;;1.72;89.46;96432.63;5030077;28;20041;-74
2020/12/17 02:40:46;;;;;;;23.80;12.95;;;4.10;86.00;;;1.73;88.76;96429.09;5026851;28;20483;-73
2020/12/17 02:43:11;;;;;;;25.65;12.07;;;4.10;85.90;;;1.72;89.10;96437.81;5051144;28;20108;-74
2020/12/17 02:45:45;;;;;;;25.63;11.15;;;4.10;85.60;;;1.75;88.71;96446.16;5034704;28;20048;-73
2020/12/17 02:48:11;;;;;;;23.73;11.00;;;4.10;85.60;;;1.74;89.03;96444.50;5022867;28;20488;-73
2020/12/17 02:50:37;;;;;;;29.73;10.63;;;4.00;85.60;;;1.68;88.67;96447.63;5032118;28;20036;-73
2020/12/17 02:53:03;;;;;;;19.77;11.30;;;3.90;85.80;;;1.67;89.00;96458.94;5017435;28;20034;-73
2020/12/17 02:55:29;;;;;;;20.02;10.70;;;3.90;85.80;;;1.66;89.40;96464.25;5050475;28;20464;-73
2020/12/17 02:57:55;;;;;;;17.17;10.20;;;3.90;85.90;;;1.68;88.98;96462.34;5031449;28;20716;-73
2020/12/17 03:00:20;;;;;;;20.33;10.57;;;3.90;85.90;;;1.71;88.40;96459.50;5050187;28;20044;-73
2020/12/17 03:02:46;;;;;;;18.42;10.88;;;4.00;85.80;;;1.72;88.79;96468.94;5031127;28;20091;-73
2020/12/17 03:05:11;;;;;;;18.13;9.82;;;3.90;85.90;;;1.71;88.73;96473.28;5031967;28;20077;-74
2020/12/17 03:07:37;;;;;;;17.98;10.20;;;4.10;85.60;;;1.72;88.78;96464.56;5031869;28;20035;-73
2020/12/17 03:10:05;;;;;;;17.33;9.68;;;4.00;85.50;;;1.69;88.99;96459.63;5035436;28;20439;-72
2020/12/17 03:12:30;;;;;;;16.52;9.27;;;3.90;85.40;;;1.70;89.12;96455.28;5032586;28;20123;-72
2020/12/17 03:14:56;;;;;;;22.92;9.48;;;3.90;85.40;;;1.71;88.98;96442.19;5028546;28;20115;-72
2020/12/17 03:17:22;;;;;;;22.08;8.77;;;3.90;85.50;;;1.71;88.33;96452.56;5050048;28;20094;-72
2020/12/17 03:19:47;;;;;;;14.27;8.45;;;4.00;85.00;;;1.71;88.54;96460.34;5050978;28;20033;-72
2020/12/17 03:22:13;;;;;;;14.55;8.77;;;4.00;85.30;;;1.72;88.11;96459.38;5035717;28;20555;-72
2020/12/17 03:24:38;;;;;;;17.52;8.90;;;4.00;85.20;;;1.71;89.29;96442.19;5028342;28;20383;-72
2020/12/17 03:27:04;;;;;;;28.55;8.55;;;4.00;85.10;;;1.68;89.01;96433.84;5038523;28;20045;-72
2020/12/17 03:29:29;;;;;;;18.80;8.57;;;3.90;85.30;;;1.63;88.83;96436.81;5026007;28;20032;-72
2020/12/17 03:31:55;;;;;;;22.50;7.32;;;3.80;85.40;;;1.58;88.52;96433.75;5048966;28;20088;-72
2020/12/17 03:34:21;;;;;;;11.77;7.45;;;3.70;85.40;;;1.54;89.07;96429.75;5050531;28;20029;-72
2020/12/17 03:36:46;;;;;;;16.75;8.02;;;3.70;85.60;;;1.51;88.35;96440.38;5028887;28;20124;-72
2020/12/17 03:39:12;;;;;;;14.10;7.65;;;3.70;85.60;;;1.52;88.99;96444.63;5039759;28;20128;-72
2020/12/17 03:41:37;;;;;;;12.63;7.22;;;3.70;85.60;;;1.50;88.95;96449.13;5045911;28;20519;-72
2020/12/17 03:44:03;;;;;;;16.17;8.07;;;3.60;85.50;;;1.48;88.61;96445.81;5030101;28;20056;-72
2020/12/17 03:46:28;;;;;;;21.08;7.70;;;3.70;85.50;;;1.46;88.43;96447.72;5049917;28;20048;-71
2020/12/17 03:48:54;;;;;;;11.43;7.20;;;3.60;85.60;;;1.48;88.25;96444.06;5050361;28;20063;-72
2020/12/17 03:51:19;;;;;;;12.32;7.40;;;3.70;85.50;;;1.46;88.24;96463.28;5059675;28;20041;-72
2020/12/17 03:53:45;;;;;;;16.55;7.47;;;3.60;85.60;;;1.46;89.01;96461.50;5030580;28;20032;-72
2020/12/17 03:56:11;;;;;;;15.40;7.43;;;3.60;85.60;;;1.43;89.06;96458.34;5014463;28;20037;-72
2020/12/17 03:58:36;;;;;;;16.67;7.30;;;3.60;85.50;;;1.40;88.53;96456.00;5013359;28;20040;-72
2020/12/17 04:01:02;;;;;;;19.30;6.60;;;3.50;85.50;;;1.37;88.82;96458.84;5032472;28;20084;-74
2020/12/17 04:03:27;;;;;;;16.13;6.75;;;3.50;85.40;;;1.34;89.18;96459.88;5060155;28;20041;-75
2020/12/17 04:05:53;;;;;;;10.82;6.72;;;3.50;85.40;;;1.32;88.31;96464.38;5048264;28;20060;-75
2020/12/17 04:08:18;;;;;;;14.25;7.88;;;3.50;85.50;;;1.32;88.35;96459.19;5034608;28;20028;-73
2020/12/17 04:10:44;;;;;;;13.23;7.20;;;3.60;85.40;;;1.30;88.92;96463.69;5024141;28;20099;-72
2020/12/17 04:13:09;;;;;;;12.27;7.85;;;3.50;85.40;;;1.34;89.29;96469.44;5021872;28;20082;-72
2020/12/17 04:15:35;;;;;;;14.40;8.23;;;3.60;85.40;;;1.31;88.81;96477.44;5050432;28;20025;-74
2020/12/17 04:18:00;;;;;;;23.95;8.43;;;3.50;85.60;;;1.31;88.49;96480.03;5034648;28;20404;-73
2020/12/17 04:20:26;;;;;;;13.30;7.88;;;3.50;85.50;;;1.34;88.14;96484.97;5015909;28;20059;-73
2020/12/17 04:22:52;;;;;;;16.05;7.88;;;3.60;85.60;;;1.34;89.31;96484.97;5013121;28;20037;-73
2020/12/17 04:25:17;;;;;;;19.23;8.55;;;3.50;85.40;;;1.31;89.27;96486.06;5030509;28;20037;-73
2020/12/17 04:27:43;;;;;;;19.75;8.55;;;3.50;85.70;;;1.31;88.51;96487.81;5029358;28;20625;-72
2020/12/17 04:30:08;;;;;;;13.13;8.10;;;3.50;85.60;;;1.31;89.07;96495.59;5031499;28;20037;-73
2020/12/17 04:32:34;;;;;;;13.85;8.23;;;3.50;85.70;;;1.33;89.26;96497.13;5047796;28;20040;-72
2020/12/17 04:34:59;;;;;;;15.02;8.52;;;3.50;85.70;;;1.35;88.92;96502.19;5060338;28;20061;-72
2020/12/17 04:37:25;;;;;;;14.02;8.30;;;3.60;85.70;;;1.37;88.49;96505.50;5031625;28;20048;-70
2020/12/17 04:39:51;;;;;;;15.00;8.02;;;3.70;85.60;;;1.38;88.32;96502.78;5028684;28;20044;-71
2020/12/17 04:42:16;;;;;;;35.90;8.68;;;3.60;85.60;;;1.37;88.75;96495.94;5026871;28;20033;-70
2020/12/17 04:44:44;;;;;;;14.80;8.32;;;3.50;85.80;;;1.38;88.57;96497.59;5013273;28;20040;-70
2020/12/17 04:47:15;;;;;;;13.55;8.45;;;3.60;85.70;;;1.36;88.47;96498.63;5046851;28;20048;-67
2020/12/17 04:49:47;;;;;;;20.85;9.20;;;3.60;85.70;;;1.39;89.13;96495.81;5043159;28;20048;-73
2020/12/17 04:52:14;;;;;;;11.70;8.05;;;3.60;85.70;;;1.39;88.51;96501.84;5024945;28;20041;-72
2020/12/17 04:54:39;;;;;;;20.77;9.00;;;3.60;85.50;;;1.38;88.81;96492.41;5046324;28;20037;-72
2020/12/17 04:57:13;;;;;;;33.80;8.43;;;3.60;85.40;;;1.39;88.56;96508.78;5049353;28;20508;-72
2020/12/17 04:59:47;;;;;;;13.88;8.35;;;3.60;85.00;;;1.35;88.42;96497.00;5035249;28;20473;-72
2020/12/17 05:02:14;;;;;;;18.73;8.52;;;3.50;85.40;;;1.34;88.69;96498.75;5032076;28;20182;-71
2020/12/17 05:04:42;;;;;;;13.77;8.48;;;3.50;85.20;;;1.29;88.71;96497.50;5024946;28;20033;-72
2020/12/17 05:07:10;;;;;;;12.82;7.50;;;3.50;85.20;;;1.27;88.44;96489.00;5026606;28;20040;-73
2020/12/17 05:09:37;;;;;;;18.52;8.02;;;3.50;85.00;;;1.29;88.57;96487.13;5048430;28;20032;-71
2020/12/17 05:12:03;;;;;;;19.17;7.63;;;3.50;84.90;;;1.29;89.16;96487.13;5046662;28;20166;-71
2020/12/17 05:14:29;;;;;;;13.85;8.43;;;3.50;85.00;;;1.28;88.51;96491.47;5024046;28;20408;-71
2020/12/17 05:16:56;;;;;;;15.55;7.85;;;3.60;85.20;;;1.28;88.94;96493.25;5029819;28;20064;-71
2020/12/17 05:19:23;;;;;;;13.10;7.68;;;3.60;85.10;;;1.28;88.86;96506.22;5022232;28;20037;-73
2020/12/17 05:21:49;;;;;;;14.60;8.90;;;3.60;85.00;;;1.31;88.42;96505.97;5031753;28;20113;-72
2020/12/17 05:24:15;;;;;;;22.50;8.63;;;3.60;85.00;;;1.31;88.67;96503.38;5028957;28;20441;-72
2020/12/17 05:26:41;;;;;;;19.80;9.25;;;3.60;85.10;;;1.29;88.41;96510.44;5039167;28;20041;-71
2020/12/17 05:29:06;;;;;;;16.30;8.75;;;3.50;85.30;;;1.28;89.15;96504.44;5021272;28;20033;-71
2020/12/17 05:31:33;;;;;;;14.20;8.55;;;3.60;85.10;;;1.29;88.41;96518.22;5032585;28;20031;-71
2020/12/17 05:34:05;;;;;;;18.83;10.98;;;3.60;85.10;;;1.31;88.66;96511.16;5002522;28;20529;-72
2020/12/17 05:36:31;;;;;;;37.28;20.92;;;3.60;85.10;;;1.30;88.35;96512.09;5024862;28;20036;-72
2020/12/17 05:39:12;;;;;;;56.03;14.30;;;3.50;85.20;;;1.29;88.92;96528.59;5033350;28;20086;-80
2020/12/17 05:41:41;;;;;;;19.85;11.68;;;3.40;85.50;;;1.28;88.35;96521.75;5027550;28;20131;-80
2020/12/17 05:44:33;;;;;;;16.85;9.75;;;3.50;85.50;;;1.29;89.46;96523.41;5041606;28;20029;-79
2020/12/17 05:46:59;;;;;;;39.42;10.38;;;3.60;85.30;;;1.29;88.78;96538.94;5031593;28;20136;-80
2020/12/17 05:49:27;;;;;;;44.75;9.88;;;3.50;85.20;;;1.28;88.14;96543.31;5022103;28;20116;-80
2020/12/17 05:52:22;;;;;;;29.45;9.77;;;3.50;85.40;;;1.26;88.74;96545.19;5021023;28;20076;-80
2020/12/17 05:55:00;;;;;;;19.35;10.50;;;3.40;85.50;;;1.26;88.76;96552.16;5029367;28;20080;-80
2020/12/17 05:57:26;;;;;;;26.23;10.20;;;3.40;85.80;;;1.25;88.42;96550.50;5047159;28;20255;-80
2020/12/17 05:59:59;;;;;;;34.17;8.60;;;3.40;85.70;;;1.22;88.86;96547.22;5035011;28;20211;-80
2020/12/17 06:02:34;;;;;;;20.98;9.55;;;3.40;85.50;;;1.23;88.92;96550.63;5046883;28;20056;-79
2020/12/17 06:05:06;;;;;;;21.88;9.45;;;3.50;85.80;;;1.25;89.24;96550.50;5015157;28;20040;-78
2020/12/17 06:07:45;;;;;;;14.13;9.05;;;3.50;85.70;;;1.26;89.02;96549.56;5048508;28;20048;-65
2020/12/17 06:10:19;;;;;;;22.08;12.70;;;3.60;85.60;;;1.27;88.83;96540.84;5042044;28;20111;-73
2020/12/17 06:12:46;;;;;;;41.90;23.90;;;3.60;85.70;;;1.29;89.08;96544.97;5060263;28;20025;-69
2020/12/17 06:15:18;;;;;;;22.88;13.35;;;3.60;85.70;;;1.30;89.34;96545.78;5080717;28;20115;-73
2020/12/17 06:17:50;;;;;;;26.80;14.32;;;3.60;85.60;;;1.31;88.84;96547.41;5034881;28;20033;-69
2020/12/17 06:20:16;;;;;;;24.20;11.13;;;3.60;85.40;;;1.33;88.79;96555.91;5067518;28;20139;-73
2020/12/17 06:22:43;;;;;;;19.60;12.90;;;3.60;85.10;;;1.35;88.93;96554.00;5038026;28;20126;-72
2020/12/17 06:25:10;;;;;;;20.88;11.77;;;3.70;85.10;;;1.33;89.13;96561.09;5029317;28;20117;-69
2020/12/17 06:27:36;;;;;;;21.58;12.70;;;3.60;85.10;;;1.31;88.75;96557.78;5066773;28;20364;-67
2020/12/17 06:30:08;;;;;;;23.17;9.20;;;3.50;85.90;;;1.30;89.03;96550.97;5046958;28;20044;-67
2020/12/17 06:32:34;;;;;;;55.17;11.57;;;3.50;85.50;;;1.25;88.46;96547.91;5048825;28;20036;-68
2020/12/17 06:35:07;;;;;;;15.95;9.73;;;3.40;85.80;;;1.27;89.16;96556.38;5049341;28;20036;-67
2020/12/17 06:37:36;;;;;;;34.53;8.18;;;3.40;85.80;;;1.27;88.66;96557.22;5033048;28;20112;-67
2020/12/17 06:40:03;;;;;;;16.33;8.18;;;3.50;85.60;;;1.23;88.83;96556.63;5029839;28;20040;-66
2020/12/17 06:42:36;;;;;;;17.10;8.13;;;3.50;85.70;;;1.25;89.08;96566.06;5053592;28;20412;-65
2020/12/17 06:45:03;;;;;;;29.05;8.15;;;3.40;85.70;;;1.22;88.97;96565.34;5070295;28;20502;-64
2020/12/17 06:47:28;;;;;;;33.33;8.73;;;3.40;86.00;;;1.21;88.70;96574.06;5050741;28;20136;-67
2020/12/17 06:50:11;;;;;;;38.78;7.97;;;3.40;85.80;;;1.20;88.62;96577.59;5033716;28;20509;-66
2020/12/17 06:53:18;;;;;;;16.38;8.57;;;3.30;86.00;;;1.21;89.83;96578.44;5068580;28;20037;-68
2020/12/17 06:55:51;;;;;;;22.92;8.05;;;3.40;86.10;;;1.21;88.56;96588.78;5072667;28;20046;-67
2020/12/17 06:58:21;;;;;;;26.80;8.82;;;3.40;86.30;;;1.21;89.32;96594.81;5053532;28;20043;-68
2020/12/17 07:00:47;;;;;;;26.17;8.05;;;3.50;86.20;;;1.20;88.83;96595.75;5078323;28;20055;-63
2020/12/17 07:03:42;;;;;;;33.33;15.18;;;3.30;86.30;;;1.20;89.85;96593.16;5050711;28;20101;-66
2020/12/17 07:06:18;;;;;;;29.35;12.50;;;3.40;86.70;;;1.20;88.96;96598.34;5079262;28;20388;-67
2020/12/17 07:09:02;;;;;;;31.20;9.60;;;3.40;86.60;;;1.21;89.61;96610.34;5079197;28;20116;-66
2020/12/17 07:11:46;;;;;;;80.05;9.55;;;3.40;86.50;;;1.20;89.84;96610.47;5049607;28;20028;-68
2020/12/17 07:14:27;;;;;;;23.15;9.60;;;3.40;86.70;;;1.19;90.23;96620.00;5056938;28;20552;-68
2020/12/17 07:17:01;;;;;;;37.53;10.93;;;3.30;86.90;;;1.19;89.92;96624.38;5069884;28;20036;-67
2020/12/17 07:19:37;;;;;;;40.00;12.18;;;3.30;87.10;;;1.19;89.66;96619.19;5070504;28;20495;-66
2020/12/17 07:22:17;;;;;;;38.72;11.93;;;3.30;87.10;;;1.17;89.39;96623.66;5072863;28;20047;-69
2020/12/17 07:24:49;;;;;;;89.55;11.50;;;3.30;87.30;;;1.14;89.34;96629.09;5087735;28;20150;-68
2020/12/17 07:27:19;;;;;;;52.17;15.02;;;3.20;87.20;;;1.12;90.18;96631.75;5051563;28;20036;-68
2020/12/17 07:30:06;;;;;;;80.70;11.23;;;3.20;87.60;;;1.12;90.67;96626.59;5070466;28;20526;-67
2020/12/17 07:32:44;;;;;;;38.50;9.50;;;3.10;87.40;;;1.07;89.73;96622.69;5064060;28;20067;-68
2020/12/17 07:35:09;;;;;;;39.55;9.70;;;3.10;87.50;;;1.09;89.29;96626.00;5064194;28;20036;-70
2020/12/17 07:37:39;;;;;;;24.60;10.13;;;3.10;87.40;;;1.09;89.27;96631.19;5065075;28;20035;-71
2020/12/17 07:40:17;;;;;;;31.83;9.13;;;3.20;87.10;;;1.11;89.42;96624.94;5087556;28;20047;-66
2020/12/17 07:43:01;;;;;;;38.60;12.73;;;3.30;86.80;;;1.13;90.12;96624.81;5065459;28;20036;-70
2020/12/17 07:45:42;;;;;;;31.35;10.77;;;3.30;86.60;;;1.20;89.12;96631.19;5033447;28;20158;-70
2020/12/17 07:48:54;;;;;;;32.15;8.93;;;3.40;86.20;;;1.21;89.80;96633.66;5080768;28;20072;-68
2020/12/17 07:51:19;;;;;;;12.23;8.27;;;3.50;85.90;;;1.23;89.07;96639.56;5086527;28;20041;-71
2020/12/17 07:53:49;;;;;;;17.15;7.72;;;3.50;86.00;;;1.19;89.15;96640.75;5084309;28;20824;-70
2020/12/17 07:56:15;;;;;;;22.50;8.07;;;3.40;85.70;;;1.21;88.24;96643.22;5067383;28;20042;-68
2020/12/17 07:58:41;;;;;;;37.40;8.88;;;3.40;85.70;;;1.20;88.98;96642.38;5055754;28;20120;-70
2020/12/17 08:01:08;;;;;;;36.53;9.02;;;3.40;85.50;;;1.21;88.79;96654.41;5037495;28;20097;-68
2020/12/17 08:03:43;;;;;;;29.35;9.00;;;3.40;85.50;;;1.22;88.96;96648.28;5066835;28;20028;-69
2020/12/17 08:06:09;;;;;;;51.38;9.75;;;3.40;86.00;;;1.22;89.08;96652.63;5047943;28;20032;-70
2020/12/17 08:08:35;;;;;;;18.73;9.20;;;3.40;85.80;;;1.22;89.33;96653.44;5066955;28;20107;-66
2020/12/17 08:11:02;;;;;;;12.65;8.30;;;3.50;86.30;;;1.27;89.22;96660.03;5041708;28;20139;-66
2020/12/17 08:13:28;;;;;;;17.20;7.68;;;3.50;86.30;;;1.30;89.50;96659.81;5056860;28;20036;-66
2020/12/17 08:15:54;;;;;;;20.80;7.97;;;3.50;85.40;;;1.33;89.00;96659.56;5069687;28;20032;-69
2020/12/17 08:18:27;;;;;;;19.88;7.57;;;3.60;85.20;;;1.33;88.44;96659.56;5038774;28;20082;-71
2020/12/17 08:21:05;;;;;;;28.40;14.00;;;3.50;84.50;;;1.38;88.95;96665.25;5037395;28;20036;-70
2020/12/17 08:23:35;;;;;;;34.35;7.70;;;3.70;85.20;;;1.46;89.20;96673.25;5035360;28;20055;-70
2020/12/17 08:26:03;;;;;;;14.32;8.23;;;3.80;84.50;;;1.46;88.74;96670.66;5051025;28;20372;-70
2020/12/17 08:28:40;;;;;;;13.00;7.20;;;3.80;84.70;;;1.49;88.40;96667.81;5044170;28;20484;-68
2020/12/17 08:31:13;;;;;;;37.03;8.10;;;3.80;84.00;;;1.53;88.35;96667.44;5061528;28;23819;-66
2020/12/17 08:33:52;;;;;;;14.68;7.72;;;3.90;83.70;;;1.55;88.44;96667.34;5077264;28;20028;-69
2020/12/17 08:36:21;;;;;;;12.27;6.68;;;3.80;83.40;;;1.54;88.07;96676.06;5035059;28;20063;-69
2020/12/17 08:39:11;;;;;;;11.60;5.95;;;3.80;82.80;;;1.55;86.80;96682.88;5048290;28;20059;-65
2020/12/17 08:41:47;;;;;;;11.63;6.95;;;3.80;82.50;;;1.56;87.27;96687.13;5046643;28;20107;-71
2020/12/17 08:44:14;;;;;;;10.10;6.70;;;3.80;82.70;;;1.56;87.62;96689.72;5062854;28;20060;-74
2020/12/17 08:46:47;;;;;;;8.95;5.95;;;3.90;82.80;;;1.57;87.08;96682.75;5028429;28;20036;-70
2020/12/17 08:49:13;;;;;;;14.07;5.95;;;3.90;82.40;;;1.54;87.46;96679.47;5045780;28;20037;-70
2020/12/17 08:51:44;;;;;;;9.40;6.35;;;3.80;82.10;;;1.52;87.19;96691.72;5048460;28;20081;-64
2020/12/17 08:54:09;;;;;;;10.38;6.25;;;3.70;82.40;;;1.52;86.99;96696.09;5046371;28;20741;-68
2020/12/17 08:56:35;;;;;;;9.70;6.07;;;3.70;82.30;;;1.51;87.46;96699.63;5086354;28;20043;-70
2020/12/17 08:59:04;;;;;;;8.20;5.88;;;3.70;82.40;;;1.51;86.95;96704.81;5070877;28;20157;-68
2020/12/17 09:01:35;;;;;;;8.32;5.85;;;3.70;82.00;;;1.50;87.39;96705.75;5067386;28;20355;-67
2020/12/17 09:04:06;;;;;;;11.07;5.68;;;3.70;82.20;;;1.45;87.28;96710.47;5062998;28;20510;-65
2020/12/17 09:06:32;;;;;;;9.63;6.00;;;3.60;82.60;;;1.42;87.27;96710.72;5068047;28;20476;-67
2020/12/17 09:09:18;;;;;;;15.13;8.73;;;3.60;83.00;;;1.48;86.61;96726.63;5051977;28;20066;-67
2020/12/17 09:11:46;;;;;;;8.88;5.60;;;3.70;82.40;;;1.43;86.98;96717.53;5062303;28;20036;-64
2020/12/17 09:14:12;;;;;;;8.75;5.60;;;3.70;82.20;;;1.46;87.45;96727.69;5036608;28;20036;-62
2020/12/17 09:16:40;;;;;;;10.88;6.60;;;3.70;82.20;;;1.48;87.33;96724.03;5077653;28;20454;-64
2020/12/17 09:19:09;;;;;;;9.25;5.50;;;3.70;82.60;;;1.48;87.56;96730.97;5061695;28;20055;-67
2020/12/17 09:21:57;;;;;;;10.80;5.28;;;3.60;82.70;;;1.51;87.64;96731.56;5078932;28;20545;-68
2020/12/17 09:24:29;;;;;;;10.90;4.88;;;3.80;82.30;;;1.54;86.09;96726.13;5087882;28;20047;-68
2020/12/17 09:27:23;;;;;;;8.93;5.80;;;3.80;81.70;;;1.56;86.21;96727.78;5052904;28;20098;-69
2020/12/17 09:30:22;;;;;;;7.72;5.65;;;3.80;81.90;;;1.61;86.01;96731.69;5062216;28;20028;-67
2020/12/17 09:32:55;;;;;;;10.60;5.53;;;3.90;81.80;;;1.64;86.83;96725.44;5063794;28;20030;-67
2020/12/17 09:35:31;;;;;;;8.32;5.68;;;4.10;81.60;;;1.68;86.76;96726.84;5083685;28;20040;-66
2020/12/17 09:38:01;;;;;;;10.82;6.20;;;4.10;81.60;;;1.69;86.97;96729.31;5079726;28;20032;-69
2020/12/17 09:40:27;;;;;;;14.35;6.90;;;3.90;81.40;;;1.71;87.10;96732.63;5059977;28;20032;-69
2020/12/17 09:43:05;;;;;;;16.17;10.80;;;4.00;81.40;;;1.71;86.29;96732.63;5046098;28;20395;-69
2020/12/17 09:45:36;;;;;;;18.88;11.55;;;4.00;81.30;;;1.74;86.30;96724.59;5068975;28;20047;-70
2020/12/17 09:48:27;;;;;;;30.50;18.10;;;4.10;81.30;;;1.83;85.92;96723.91;5084287;28;20039;-66
2020/12/17 09:51:03;;;;;;;10.18;6.85;;;4.30;81.20;;;1.90;85.87;96742.41;5048740;28;20071;-68
2020/12/17 09:53:32;;;;;;;8.95;6.05;;;4.30;80.70;;;1.84;86.22;96722.97;5069954;28;20672;-68
2020/12/17 09:55:58;;;;;;;9.00;6.25;;;4.10;80.70;;;1.88;85.96;96738.28;5049723;28;20037;-68
2020/12/17 09:58:23;;;;;;;8.88;6.18;;;4.10;81.30;;;1.94;86.70;96727.41;5064934;28;20104;-67
2020/12/17 10:00:49;;;;;;;10.70;6.40;;;4.40;81.20;;;1.95;86.25;96723.88;5062669;28;20064;-68
2020/12/17 10:03:14;;;;;;;8.68;6.07;;;4.20;80.30;;;1.97;85.70;96728.00;5068415;28;20036;-68
2020/12/17 10:05:40;;;;;;;8.68;5.88;;;4.20;80.20;;;2.03;86.44;96726.69;5086719;28;20029;-68
2020/12/17 10:08:06;;;;;;;10.05;6.05;;;4.50;80.00;;;2.10;86.74;96733.88;5051884;28;20043;-69
2020/12/17 10:10:34;;;;;;;30.60;16.98;;;4.60;79.90;;;2.18;86.42;96725.47;5085863;28;20040;-69
2020/12/17 10:13:02;;;;;;;11.60;7.00;;;4.70;79.80;;;2.19;85.82;96726.31;5052518;28;20062;-65
2020/12/17 10:15:28;;;;;;;9.55;6.90;;;4.50;79.60;;;2.22;85.92;96732.06;5065425;28;20121;-67
2020/12/17 10:17:54;;;;;;;8.73;5.72;;;4.60;79.80;;;2.23;86.35;96733.72;5047520;28;20474;-68
2020/12/17 10:20:20;;;;;;;10.30;7.05;;;4.60;79.60;;;2.25;86.19;96733.59;5065761;28;20107;-67
2020/12/17 10:22:46;;;;;;;10.90;7.10;;;4.70;79.60;;;2.29;86.22;96733.25;5047245;28;20028;-69
2020/12/17 10:25:11;;;;;;;10.48;7.38;;;4.80;79.50;;;2.38;85.86;96747.25;5050481;28;20097;-68
2020/12/17 10:27:37;;;;;;;9.63;7.15;;;4.90;79.20;;;2.41;86.22;96737.44;5085019;28;20036;-65
2020/12/17 10:30:04;;;;;;;11.10;7.10;;;4.90;79.40;;;2.47;86.20;96739.53;5065386;28;20048;-69
2020/12/17 10:32:31;;;;;;;8.88;6.20;;;4.90;78.90;;;2.47;85.52;96739.53;5051260;28;20074;-64